EST,Max TemperatureF,Mean TemperatureF,Min TemperatureF,Max Dew PointF,MeanDew PointF,Min DewpointF,Max Humidity, Mean Humidity, Min Humidity, Max Sea Level PressureIn, Mean Sea Level PressureIn, Min Sea Level PressureIn, Max VisibilityMiles, Mean VisibilityMiles, Min VisibilityMiles, Max Wind SpeedMPH, Mean Wind SpeedMPH, Max Gust SpeedMPH,PrecipitationIn, CloudCover, Events, WindDirDegrees
2013-1-1,48,45,41,36,32,25,76,59,42,30.02,29.98,29.91,,,,14,6,19,0.06,5,Rain,287
2013-1-2,43,37,31,32,24,16,76,57,37,30.22,30.09,29.99,,,,16,7,21,0.05,5,Rain,1
2013-1-3,38,33,28,22,16,13,69,52,35,30.25,30.21,30.17,10,10,10,12,5,14,0.00,2,,328
2013-1-4,44,35,25,26,23,20,81,59,37,30.23,30.18,30.12,10,9,5,14,5,19,0.00,0,,286
2013-1-5,48,41,33,28,22,19,69,53,37,30.37,30.29,30.17,10,10,10,14,6,20,0.00,0,,298
2013-1-6,51,44,36,34,32,29,76,62,48,30.25,30.13,30.05,10,10,10,13,6,18,0.02,3,Rain,255
2013-1-7,52,42,31,32,28,25,75,55,35,30.46,30.33,30.13,10,10,10,16,5,22,0.00,1,,341
2013-1-8,54,42,29,37,32,24,78,63,48,30.48,30.42,30.39,10,10,9,15,5,18,0.00,4,,226
2013-1-9,64,51,37,46,40,32,85,71,56,30.42,30.35,30.25,10,9,2,16,5,20,0.00,2,,237
2013-1-10,58,50,41,39,29,25,74,53,32,30.56,30.49,30.38,10,10,10,15,6,20,0.00,1,,9
2013-1-11,57,45,33,50,42,27,83,70,57,30.50,30.25,30.09,10,8,2,15,6,19,0.07,6,Rain,220
2013-1-12,60,52,44,49,43,39,89,76,62,30.18,30.14,30.09,10,3,0,13,4,19,0.00,7,Fog,312
2013-1-13,54,48,42,49,45,38,89,86,82,30.16,30.10,30.04,5,1,0,18,9,23,0.00,4,Fog,201
2013-1-14,67,57,47,57,49,42,89,79,68,30.22,30.14,30.03,10,7,2,15,9,23,0.51,6,Rain,348
2013-1-15,47,45,43,41,39,37,86,81,76,30.28,30.22,30.10,10,6,2,18,12,25,0.60,8,Rain,47
2013-1-16,52,46,40,43,38,35,89,83,76,30.10,30.01,29.90,10,6,2,21,8,30,0.37,8,Rain,344
2013-1-17,46,40,34,40,35,29,83,77,70,30.12,30.06,29.99,10,4,1,13,6,18,0.96,8,Rain-Snow,17
2013-1-18,40,34,27,30,25,17,82,61,40,30.54,30.27,30.03,10,6,1,17,7,23,0.16,4,Snow,346
2013-1-19,52,40,28,36,27,16,79,57,35,30.49,30.32,30.08,10,10,10,18,10,22,0.00,0,,225
2013-1-20,60,51,41,31,27,16,53,43,32,30.06,29.96,29.86,10,10,10,21,12,32,0.00,0,,279
2013-1-21,48,40,31,39,25,16,76,55,33,30.12,29.96,29.76,10,10,10,24,8,33,0.00,1,,21
2013-1-22,34,26,18,21,5,-2,63,45,27,30.29,30.13,29.91,10,10,10,28,10,37,0.00,0,,346
2013-1-23,29,21,13,10,4,1,64,48,31,30.35,30.27,30.16,10,10,10,18,6,25,0.00,3,,357
2013-1-24,27,20,13,16,10,-1,77,58,39,30.51,30.21,30.04,10,5,1,22,10,31,0.13,4,Snow,12
2013-1-25,29,21,12,21,15,2,81,61,40,30.51,30.23,30.07,10,5,0,16,5,20,0.13,6,Snow,265
2013-1-26,36,28,19,16,15,12,77,61,44,30.43,30.22,30.09,10,10,8,21,9,28,0.00,3,,354
2013-1-27,38,27,16,17,13,8,68,54,40,30.60,30.53,30.44,10,10,8,12,5,15,0.00,0,,326
2013-1-28,52,38,24,40,29,16,76,66,56,30.53,30.31,30.10,10,8,5,20,9,29,0.08,5,Rain,243
2013-1-29,66,57,47,46,42,40,82,67,52,30.15,30.10,30.08,10,8,5,18,9,28,0.00,1,,242
2013-1-30,64,55,46,53,47,41,89,78,67,30.05,29.82,29.47,10,6,0,29,17,38,0.00,5,Fog,211
2013-1-31,62,50,37,55,35,14,80,54,28,29.95,29.56,29.28,10,8,2,38,18,50,0.47,5,Rain,266